createdAt,value
2023-02-15T00:01:20.844Z,87.27
2023-02-15T00:04:25.865Z,87.03
2023-02-15T00:07:28.458Z,87.90
2023-02-15T00:10:31.334Z,88.07
2023-02-15T00:13:34.141Z,88.18
2023-02-15T00:16:37.309Z,87.36
2023-02-15T00:19:41.138Z,87.39
2023-02-15T00:22:44.078Z,86.82
2023-02-15T00:25:46.724Z,86.92
2023-02-15T00:28:49.670Z,86.27
2023-02-15T00:31:53.218Z,86.59
2023-02-15T00:34:56.202Z,86.70
2023-02-15T00:38:00.323Z,86.33
2023-02-15T00:41:05.369Z,86.70
2023-02-15T00:44:08.508Z,86.71
2023-02-15T00:47:11.420Z,86.68
2023-02-15T00:50:14.150Z,86.66
2023-02-15T00:53:17.518Z,87.06
2023-02-15T00:56:20.673Z,87.91
2023-02-15T00:59:23.595Z,87.96
2023-02-15T01:02:26.305Z,87.94
2023-02-15T01:05:30.842Z,88.16
2023-02-15T01:08:33.574Z,88.01
2023-02-15T01:11:36.572Z,87.43
2023-02-15T01:14:39.329Z,87.27
2023-02-15T01:17:42.526Z,87.16
2023-02-15T01:20:45.506Z,87.61
2023-02-15T01:23:50.239Z,87.57
2023-02-15T01:26:52.837Z,87.46
2023-02-15T01:29:56.600Z,87.70
2023-02-15T01:32:59.609Z,87.35
2023-02-15T01:36:03.778Z,86.61
2023-02-15T01:39:08.911Z,86.56
2023-02-15T01:42:12.947Z,86.64
2023-02-15T01:45:31.004Z,87.35
2023-02-15T01:48:34.110Z,87.11
2023-02-15T01:51:42.488Z,86.57
2023-02-15T01:54:48.280Z,86.63
2023-02-15T01:57:52.123Z,86.66
2023-02-15T02:00:59.634Z,86.87
2023-02-15T02:04:03.168Z,86.91
2023-02-15T02:07:07.988Z,86.61
2023-02-15T02:10:14.194Z,86.73
2023-02-15T02:13:17.278Z,86.66
2023-02-15T02:16:23.032Z,87.34
2023-02-15T02:19:41.539Z,87.35
2023-02-15T02:23:05.696Z,87.28
2023-02-15T02:26:39.045Z,87.07
2023-02-15T02:29:55.630Z,87.31
2023-02-15T02:33:20.604Z,86.95
2023-02-15T02:36:36.851Z,86.33
2023-02-15T02:39:56.049Z,86.00
2023-02-15T02:43:12.391Z,86.31
2023-02-15T02:46:25.585Z,86.14
2023-02-15T02:49:31.857Z,86.43
2023-02-15T02:52:44.923Z,86.95
2023-02-15T02:55:54.928Z,86.92
2023-02-15T02:59:09.121Z,87.63
2023-02-15T03:02:27.207Z,87.81
2023-02-15T03:05:31.315Z,87.96
2023-02-15T03:08:39.146Z,87.48
2023-02-15T03:11:46.322Z,87.77
2023-02-15T03:14:57.126Z,88.44
2023-02-15T03:18:03.938Z,87.52
2023-02-15T03:21:09.414Z,87.51
2023-02-15T03:24:18.092Z,87.08
2023-02-15T03:27:25.675Z,87.15
2023-02-15T03:30:32.305Z,87.36
2023-02-15T03:33:40.042Z,87.41
2023-02-15T03:36:48.399Z,87.28
2023-02-15T03:40:20.310Z,87.13
2023-02-15T03:43:41.989Z,87.88
2023-02-15T03:46:55.761Z,88.04
2023-02-15T03:50:03.943Z,87.33
2023-02-15T03:53:11.710Z,87.55
2023-02-15T03:56:14.560Z,87.58
2023-02-15T03:59:35.654Z,87.20
2023-02-15T04:02:58.501Z,86.47
2023-02-15T04:06:03.797Z,87.60
2023-02-15T04:09:25.057Z,88.47
2023-02-15T04:12:28.366Z,88.23
2023-02-15T04:15:49.589Z,88.01
2023-02-15T04:19:11.742Z,88.37
2023-02-15T04:22:32.826Z,88.17
2023-02-15T04:25:35.868Z,87.53
2023-02-15T04:28:38.855Z,87.18
2023-02-15T04:31:44.021Z,87.66
2023-02-15T04:34:46.678Z,87.61
2023-02-15T04:37:49.561Z,87.40
2023-02-15T04:40:53.161Z,88.16
2023-02-15T04:43:56.055Z,88.36
2023-02-15T04:46:58.652Z,88.72
2023-02-15T04:50:01.766Z,88.84
2023-02-15T04:53:12.218Z,88.51
2023-02-15T04:56:15.201Z,87.95
2023-02-15T04:59:18.006Z,87.56
2023-02-15T05:02:21.494Z,87.43
2023-02-15T05:05:24.150Z,87.25
2023-02-15T05:08:27.082Z,87.21
2023-02-15T05:11:29.820Z,87.63
2023-02-15T05:14:32.840Z,87.73
2023-02-15T05:17:35.667Z,87.66
2023-02-15T05:20:38.718Z,87.50
2023-02-15T05:23:41.347Z,87.04
2023-02-15T05:27:02.942Z,86.95
2023-02-15T05:30:06.525Z,86.68
2023-02-15T05:33:10.129Z,86.67
2023-02-15T05:36:13.174Z,88.03
2023-02-15T05:39:16.400Z,88.18
2023-02-15T05:42:19.042Z,88.10
2023-02-15T05:45:21.996Z,87.86
2023-02-15T05:48:26.776Z,87.73
2023-02-15T05:51:29.751Z,86.81
2023-02-15T05:54:32.426Z,86.60
2023-02-15T05:57:36.530Z,87.07
2023-02-15T06:00:39.167Z,87.83
2023-02-15T06:03:42.453Z,88.09
2023-02-15T06:06:45.083Z,88.18
2023-02-15T06:09:48.801Z,87.28
2023-02-15T06:15:11.330Z,84.42
2023-02-15T06:18:14.688Z,84.42
2023-02-15T06:21:17.562Z,86.33
2023-02-15T06:24:20.527Z,86.34
2023-02-15T06:27:23.178Z,87.41
2023-02-15T06:30:26.251Z,86.96
2023-02-15T06:33:29.032Z,87.56
2023-02-15T06:36:32.615Z,87.93
2023-02-15T06:39:35.997Z,87.40
2023-02-15T06:42:39.055Z,87.22
2023-02-15T06:45:42.381Z,86.70
2023-02-15T06:48:45.335Z,86.71
2023-02-15T06:51:47.919Z,86.45
2023-02-15T06:54:53.514Z,86.74
2023-02-15T06:57:56.242Z,86.30
2023-02-15T07:00:59.297Z,86.31
2023-02-15T07:04:01.982Z,85.79
2023-02-15T07:07:04.927Z,86.31
2023-02-15T07:10:07.959Z,86.95
2023-02-15T07:13:11.030Z,87.97
2023-02-15T07:16:14.073Z,87.48
2023-02-15T07:19:17.380Z,88.37
2023-02-15T07:22:27.047Z,87.85
2023-02-15T07:25:31.284Z,88.02
2023-02-15T07:28:38.960Z,88.30
2023-02-15T07:31:54.035Z,87.51
2023-02-15T07:34:57.258Z,90.00
2023-02-15T07:38:03.343Z,90.25
2023-02-15T07:41:15.036Z,90.20
2023-02-15T07:44:21.523Z,90.21
2023-02-15T07:47:24.942Z,89.75
2023-02-15T07:50:28.108Z,89.65
2023-02-15T07:53:31.810Z,88.83
2023-02-15T07:56:37.065Z,86.73
2023-02-15T07:59:42.238Z,87.50
2023-02-15T08:03:15.261Z,85.34
2023-02-15T08:06:18.781Z,85.59
2023-02-15T08:09:22.621Z,86.24
2023-02-15T08:12:32.265Z,84.37
2023-02-15T08:15:36.336Z,85.13
2023-02-15T08:18:41.464Z,84.83
2023-02-15T08:21:47.846Z,84.58
2023-02-15T08:24:57.046Z,84.57
2023-02-15T08:28:07.662Z,84.39
2023-02-15T08:31:23.146Z,83.38
2023-02-15T08:37:51.383Z,80.92
2023-02-15T08:40:57.078Z,79.79
2023-02-15T08:44:05.771Z,79.11
2023-02-15T08:47:08.712Z,77.99
2023-02-15T08:50:12.943Z,76.68
2023-02-15T08:53:16.939Z,77.17
2023-02-15T08:56:22.817Z,76.42
2023-02-15T08:59:27.951Z,76.92
2023-02-15T09:02:38.128Z,75.50
2023-02-15T09:05:41.135Z,72.93
2023-02-15T09:08:47.707Z,72.58
2023-02-15T09:11:58.561Z,72.98
2023-02-15T09:15:02.996Z,71.70
2023-02-15T09:18:07.410Z,71.70
2023-02-15T09:21:18.253Z,71.08
2023-02-15T09:24:21.790Z,71.04
2023-02-15T09:27:26.078Z,70.61
2023-02-15T09:30:29.136Z,68.86
2023-02-15T09:33:36.006Z,70.33
2023-02-15T09:36:44.980Z,69.79
2023-02-15T09:39:49.216Z,70.32
2023-02-15T09:43:10.784Z,69.38
2023-02-15T09:46:29.923Z,69.10
2023-02-15T09:50:00.834Z,64.08
2023-02-15T09:53:25.186Z,65.71
2023-02-15T09:56:38.622Z,63.13
2023-02-15T09:59:57.881Z,62.43
2023-02-15T10:03:26.739Z,61.42
2023-02-15T10:06:48.103Z,62.75
2023-02-15T10:10:11.066Z,63.69
2023-02-15T10:13:20.355Z,64.65
2023-02-15T10:16:42.734Z,63.37
2023-02-15T10:20:02.056Z,63.71
2023-02-15T10:23:28.091Z,64.03
2023-02-15T10:26:57.098Z,64.38
2023-02-15T10:30:14.623Z,63.18
2023-02-15T10:33:41.357Z,63.09
2023-02-15T10:36:50.045Z,62.49
2023-02-15T10:40:30.780Z,63.12
2023-02-15T10:44:02.487Z,61.29
2023-02-15T10:47:12.887Z,61.76
2023-02-15T10:50:27.659Z,61.79
2023-02-15T10:53:30.662Z,61.51
2023-02-15T10:56:45.265Z,59.89
2023-02-15T11:00:10.578Z,59.01
2023-02-15T11:03:31.251Z,60.27
2023-02-15T11:06:37.204Z,59.35
2023-02-15T11:09:45.785Z,58.92
2023-02-15T11:12:50.728Z,60.07
2023-02-15T11:16:01.194Z,60.85
2023-02-15T11:19:14.118Z,61.16
2023-02-15T11:22:18.013Z,59.27
2023-02-15T11:25:26.495Z,60.15
2023-02-15T11:28:43.955Z,59.28
2023-02-15T11:31:54.613Z,59.83
2023-02-15T11:35:11.721Z,60.00
2023-02-15T11:38:19.835Z,59.55
2023-02-15T11:41:28.342Z,58.59
2023-02-15T11:44:36.037Z,58.84
2023-02-15T11:47:39.243Z,57.61
2023-02-15T11:50:43.965Z,58.44
2023-02-15T11:53:47.783Z,58.75
2023-02-15T11:56:50.775Z,58.24
2023-02-15T12:00:11.596Z,59.03
2023-02-15T12:03:33.944Z,57.65
2023-02-15T12:07:02.352Z,57.68
2023-02-15T12:10:19.232Z,58.31
2023-02-15T12:13:22.129Z,58.38
2023-02-15T12:16:28.540Z,58.63
2023-02-15T12:19:37.746Z,59.09
2023-02-15T12:22:47.270Z,58.20
2023-02-15T12:25:55.292Z,57.59
2023-02-15T12:29:08.749Z,57.80
2023-02-15T12:32:19.742Z,58.02
2023-02-15T12:35:37.173Z,58.50
2023-02-15T12:38:39.944Z,57.83
2023-02-15T12:41:47.030Z,57.77
2023-02-15T12:45:02.901Z,57.01
2023-02-15T12:48:23.933Z,57.71
2023-02-15T12:51:26.570Z,57.38
2023-02-15T12:54:39.587Z,57.42
2023-02-15T12:57:44.223Z,55.27
2023-02-15T13:00:47.736Z,56.22
2023-02-15T13:04:14.432Z,56.81
2023-02-15T13:07:17.612Z,57.31
2023-02-15T13:10:36.873Z,58.01
2023-02-15T13:13:53.010Z,56.07
2023-02-15T13:17:00.093Z,56.12
2023-02-15T13:20:11.559Z,56.20
2023-02-15T13:23:33.802Z,56.91
2023-02-15T13:26:37.816Z,56.24
2023-02-15T13:29:43.782Z,57.33
2023-02-15T13:32:51.181Z,56.42
2023-02-15T13:36:09.011Z,56.11
2023-02-15T13:39:45.416Z,55.88
2023-02-15T13:43:03.426Z,56.57
2023-02-15T13:46:21.465Z,56.53
2023-02-15T13:49:52.677Z,56.38
2023-02-15T13:53:07.788Z,57.08
2023-02-15T13:56:25.922Z,56.35
2023-02-15T13:59:45.914Z,55.56
2023-02-15T14:03:19.010Z,56.37
2023-02-15T14:06:22.137Z,56.67
2023-02-15T14:09:42.933Z,56.28
2023-02-15T14:13:06.550Z,56.70
2023-02-15T14:16:34.859Z,57.32
2023-02-15T14:20:00.761Z,57.55
2023-02-15T14:23:31.934Z,57.31
2023-02-15T14:26:45.843Z,57.92
2023-02-15T14:29:59.967Z,58.37
2023-02-15T14:33:40.896Z,58.96
2023-02-15T14:36:43.648Z,58.89
2023-02-15T14:40:20.094Z,59.42
2023-02-15T14:43:52.396Z,59.67
2023-02-15T14:46:58.205Z,58.95
2023-02-15T14:50:34.829Z,59.20
2023-02-15T14:53:40.020Z,59.34
2023-02-15T14:56:45.320Z,60.09
2023-02-15T14:59:51.343Z,59.77
2023-02-15T15:02:55.526Z,59.78
2023-02-15T15:06:05.493Z,60.47
2023-02-15T15:09:20.872Z,60.95
2023-02-15T15:12:23.695Z,60.81
2023-02-15T15:15:29.825Z,60.83
2023-02-15T15:18:54.599Z,61.62
2023-02-15T15:22:02.942Z,62.85
2023-02-15T15:25:36.864Z,63.15
2023-02-15T15:28:39.694Z,62.82
2023-02-15T15:31:54.993Z,63.91
2023-02-15T15:35:41.375Z,64.80
2023-02-15T15:39:03.314Z,65.16
2023-02-15T15:42:22.386Z,65.58
2023-02-15T15:46:00.207Z,66.13
2023-02-15T15:49:16.527Z,67.15
2023-02-15T15:52:21.855Z,67.98
2023-02-15T15:55:28.900Z,68.83
2023-02-15T15:58:32.755Z,69.23
2023-02-15T16:01:42.470Z,69.92
2023-02-15T16:04:49.671Z,70.53
2023-02-15T16:07:52.535Z,71.57
2023-02-15T16:10:56.538Z,71.68
2023-02-15T16:13:59.718Z,72.30
2023-02-15T16:17:05.804Z,72.28
2023-02-15T16:20:19.647Z,72.32
2023-02-15T16:23:37.830Z,73.05
2023-02-15T16:27:03.210Z,73.12
2023-02-15T16:30:25.106Z,73.94
2023-02-15T16:33:37.635Z,74.31
2023-02-15T16:36:40.536Z,74.39
2023-02-15T16:39:45.095Z,74.89
2023-02-15T16:42:48.445Z,74.77
2023-02-15T16:45:52.153Z,75.68
2023-02-15T16:48:59.815Z,75.83
2023-02-15T16:52:09.616Z,76.13
2023-02-15T16:55:23.483Z,76.31
2023-02-15T16:58:39.522Z,75.94
2023-02-15T17:01:46.005Z,75.66
2023-02-15T17:05:14.736Z,76.05
2023-02-15T17:08:27.423Z,76.98
2023-02-15T17:11:42.002Z,75.94
2023-02-15T17:14:45.270Z,75.80
2023-02-15T17:17:47.922Z,76.70
2023-02-15T17:20:53.379Z,77.42
2023-02-15T17:24:05.335Z,77.95
2023-02-15T17:27:22.213Z,78.82
2023-02-15T17:30:31.651Z,79.52
2023-02-15T17:33:35.506Z,80.25
2023-02-15T17:36:58.788Z,80.41
2023-02-15T17:40:15.608Z,80.06
2023-02-15T17:43:18.526Z,80.37
2023-02-15T17:46:25.124Z,79.45
2023-02-15T17:49:34.992Z,79.73
2023-02-15T17:52:38.168Z,80.69
2023-02-15T17:55:43.958Z,81.11
2023-02-15T17:58:47.343Z,81.55
2023-02-15T18:02:09.053Z,81.74
2023-02-15T18:05:34.510Z,82.02
2023-02-15T18:08:57.666Z,81.45
2023-02-15T18:12:01.578Z,80.83
2023-02-15T18:15:06.737Z,80.90
2023-02-15T18:18:12.529Z,81.28
2023-02-15T18:21:19.033Z,81.67
2023-02-15T18:24:24.815Z,82.10
2023-02-15T18:27:29.079Z,81.94
2023-02-15T18:30:33.501Z,82.16
2023-02-15T18:33:44.514Z,82.23
2023-02-15T18:36:48.898Z,82.73
2023-02-15T18:39:55.894Z,82.73
2023-02-15T18:42:59.381Z,83.13
2023-02-15T18:46:03.049Z,83.05
2023-02-15T18:49:06.361Z,83.03
2023-02-15T18:52:18.831Z,82.90
2023-02-15T18:55:25.218Z,83.10
2023-02-15T18:58:28.803Z,83.57
2023-02-15T19:01:39.239Z,83.42
2023-02-15T19:04:42.478Z,84.15
2023-02-15T19:07:48.696Z,86.12
2023-02-15T19:10:51.994Z,86.59
2023-02-15T19:13:55.307Z,86.78
2023-02-15T19:17:00.618Z,87.38
2023-02-15T19:20:04.033Z,87.21
2023-02-15T19:23:14.613Z,86.92
2023-02-15T19:26:17.816Z,85.76
2023-02-15T19:29:26.714Z,85.25
2023-02-15T19:32:31.247Z,85.51
2023-02-15T19:35:35.723Z,85.53
2023-02-15T19:38:41.064Z,86.17
2023-02-15T19:41:44.338Z,85.94
2023-02-15T19:44:47.722Z,85.95
2023-02-15T19:47:52.481Z,86.07
2023-02-15T19:50:57.141Z,86.82
2023-02-15T19:54:00.367Z,87.17
2023-02-15T19:57:03.605Z,87.69
2023-02-15T20:00:22.071Z,88.66
2023-02-15T20:03:25.960Z,88.20
2023-02-15T20:06:29.012Z,87.43
2023-02-15T20:09:37.887Z,87.66
2023-02-15T20:12:42.679Z,87.84
2023-02-15T20:15:47.258Z,88.10
2023-02-15T20:18:51.513Z,88.11
2023-02-15T20:21:55.428Z,88.14
2023-02-15T20:24:59.162Z,88.15
2023-02-15T20:28:02.424Z,88.08
2023-02-15T20:31:06.745Z,88.43
2023-02-15T20:34:11.461Z,88.76
2023-02-15T20:37:28.927Z,88.97
2023-02-15T20:40:35.078Z,88.64
2023-02-15T20:43:38.222Z,88.57
2023-02-15T20:46:41.983Z,88.71
2023-02-15T20:49:44.952Z,88.70
2023-02-15T20:52:50.534Z,88.36
2023-02-15T20:55:53.741Z,88.52
2023-02-15T20:58:57.006Z,88.89
2023-02-15T21:02:03.052Z,88.99
2023-02-15T21:05:16.716Z,89.07
2023-02-15T21:08:22.712Z,89.46
2023-02-15T21:11:27.654Z,89.38
2023-02-15T21:14:30.669Z,89.21
2023-02-15T21:17:34.104Z,88.51
2023-02-15T21:20:43.982Z,87.59
2023-02-15T21:23:47.833Z,86.81
2023-02-15T21:26:51.328Z,86.43
2023-02-15T21:29:54.217Z,86.59
2023-02-15T21:32:56.964Z,86.42
2023-02-15T21:36:00.128Z,86.81
2023-02-15T21:39:05.365Z,87.89
2023-02-15T21:42:29.476Z,87.38
2023-02-15T21:45:52.490Z,87.84
2023-02-15T21:48:55.722Z,88.15
2023-02-15T21:52:14.323Z,88.21
2023-02-15T21:55:17.653Z,88.14
2023-02-15T21:58:24.413Z,88.25
2023-02-15T22:01:28.502Z,88.41
2023-02-15T22:04:31.566Z,88.78
2023-02-15T22:07:34.192Z,86.95
2023-02-15T22:10:37.108Z,86.31
2023-02-15T22:13:41.299Z,86.97
2023-02-15T22:16:44.285Z,87.04
2023-02-15T22:19:48.909Z,87.15
2023-02-15T22:22:52.570Z,87.13
2023-02-15T22:26:05.474Z,87.45
2023-02-15T22:29:16.354Z,86.92
2023-02-15T22:32:20.969Z,87.92
2023-02-15T22:35:28.537Z,88.74
2023-02-15T22:38:31.313Z,88.93
2023-02-15T22:41:34.453Z,89.14
2023-02-15T22:44:37.061Z,88.73
2023-02-15T22:47:40.061Z,88.37
2023-02-15T22:50:42.822Z,88.13
2023-02-15T22:53:46.278Z,88.63
2023-02-15T22:56:53.824Z,89.56
2023-02-15T22:59:57.775Z,88.44
2023-02-15T23:03:01.193Z,88.44
2023-02-15T23:06:04.402Z,88.65
2023-02-15T23:09:07.708Z,87.54
2023-02-15T23:12:54.021Z,87.34
2023-02-15T23:15:58.997Z,87.40
2023-02-15T23:19:01.942Z,87.89
2023-02-15T23:22:05.333Z,88.53
2023-02-15T23:25:10.658Z,88.84
2023-02-15T23:28:19.845Z,89.04
2023-02-15T23:31:33.321Z,88.72
2023-02-15T23:34:36.060Z,88.91
2023-02-15T23:37:39.034Z,88.98
2023-02-15T23:41:00.569Z,89.08
2023-02-15T23:44:04.131Z,88.51
2023-02-15T23:47:45.467Z,87.85
2023-02-15T23:50:48.539Z,87.68
2023-02-15T23:53:51.241Z,87.81
2023-02-15T23:57:01.061Z,88.54
